Abercrombie, North Dakota
Current Conditions -  °F | °C
As of 8:35 AM on Saturday 01 Nov 2014 (Local Time) from KBWP Reporting Station
Clear Clear  
Wind Chill: 14°   Ceiling: Unl
Heat Index: 27°   Visibility: 10mi
Dew Point: 19°   Wind: 17mph
Humidity: 74%   Direction: 140°SE
Pressure: 30.23"   Gusts: 21mph
Location:  46.45°N, 96.73°W
Report Text: KBWP 011335Z AUTO 14015G18KT 10SM CLR M03/M07 A3023 RMK AO1
Loading
Personal Weather Stations






























Interactive Weather Map
Tropical Storm Tracking
New forecast layout! Learn more

10-Day Weather Forecast

Advertisements
Track Severe Weather on mobile